Time;durP1;ratioP1;P1;durP2;ratioP2;P2;SDS_P1;SDS_P2;PMS_P1;PMS_P2;Temp;Humidity;BMP_temperature;BMP_pressure;BME280_temperature;BME280_humidity;BME280_pressure;Samples;Min_cycle;Max_cycle;Signal;HPM_P1;HPM_P2
2022/05/02 00:02:13;;;;;;;;;;;12.10;94.30;;;;;;5062580;28;20204;-69
2022/05/02 00:04:39;;;;;;;;;;;12.10;94.30;;;;;;5063552;28;19955;-70
2022/05/02 00:07:05;;;;;;;;;;;12.10;94.40;;;;;;5063515;28;19913;-70
2022/05/02 00:09:30;;;;;;;;;;;12.00;94.40;;;;;;5063640;28;19918;-70
2022/05/02 00:11:57;;;;;;;;;;;12.00;94.30;;;;;;5063028;28;19932;-70
2022/05/02 00:14:23;;;;;;;;;;;12.10;94.40;;;;;;5063348;28;19916;-70
2022/05/02 00:16:48;;;;;;;;;;;12.00;94.40;;;;;;5063502;28;20123;-70
2022/05/02 00:19:14;;;;;;;;;;;12.00;94.60;;;;;;5064746;28;19910;-69
2022/05/02 00:21:40;;;;;;;;;;;12.00;94.80;;;;;;5064886;28;20134;-70
2022/05/02 00:24:07;;;;;;;;;;;11.90;94.90;;;;;;5064799;28;19919;-70
2022/05/02 00:26:33;;;;;;;;;;;12.00;94.80;;;;;;5063241;28;19976;-70
2022/05/02 00:28:58;;;;;;;;;;;12.10;94.80;;;;;;5063547;28;20085;-72
2022/05/02 00:31:24;;;;;;;;;;;12.00;94.70;;;;;;5062960;28;19951;-70
2022/05/02 00:33:49;;;;;;;;;;;12.00;94.90;;;;;;5045236;28;20008;-70
2022/05/02 00:36:15;;;;;;;;;;;11.90;95.00;;;;;;5062410;28;19913;-70
2022/05/02 00:38:41;;;;;;;;;;;11.90;95.10;;;;;;5063086;28;19954;-70
2022/05/02 00:41:07;;;;;;;;;;;11.80;95.20;;;;;;5062379;28;19975;-70
2022/05/02 00:43:32;;;;;;;;;;;11.80;95.20;;;;;;5061756;28;19915;-70
2022/05/02 00:45:59;;;;;;;;;;;11.80;95.20;;;;;;5062703;28;19976;-70
2022/05/02 00:48:25;;;;;;;;;;;11.80;95.20;;;;;;5062881;28;19987;-70
2022/05/02 00:50:51;;;;;;;;;;;11.80;95.30;;;;;;5044958;28;19909;-70
2022/05/02 00:53:22;;;;;;;;;;;11.80;95.30;;;;;;5045082;28;19909;-70
2022/05/02 00:55:48;;;;;;;;;;;11.70;95.30;;;;;;5044828;28;19959;-70
2022/05/02 00:58:14;;;;;;;;;;;11.70;95.50;;;;;;5061872;28;20196;-70
2022/05/02 01:00:40;;;;;;;;;;;11.80;95.60;;;;;;5062493;28;19972;-71
2022/05/02 01:03:08;;;;;;;;;;;11.70;95.40;;;;;;5061678;28;19916;-71
2022/05/02 01:08:30;;;;;;;;;;;11.70;95.60;;;;;;5061920;28;20223;-70
2022/05/02 01:10:56;;;;;;;;;;;11.70;95.70;;;;;;5062114;28;19909;-70
2022/05/02 01:13:40;;;;;;;;;;;11.70;95.80;;;;;;5044889;28;19915;-71
2022/05/02 01:16:38;;;;;;;;;;;11.60;96.00;;;;;;5066659;28;20112;-70
2022/05/02 01:19:04;;;;;;;;;;;11.50;96.10;;;;;;5044958;28;20192;-70
2022/05/02 01:21:29;;;;;;;;;;;11.60;96.00;;;;;;5048578;28;19963;-71
2022/05/02 01:23:58;;;;;;;;;;;11.60;95.90;;;;;;5066766;28;19936;-71
2022/05/02 01:26:24;;;;;;;;;;;11.60;96.10;;;;;;5048469;28;19909;-71
2022/05/02 01:28:51;;;;;;;;;;;11.50;96.10;;;;;;5066375;28;19908;-71
2022/05/02 01:31:18;;;;;;;;;;;11.50;96.10;;;;;;5066085;28;19909;-70
2022/05/02 01:33:44;;;;;;;;;;;11.50;96.30;;;;;;5065225;28;19931;-70
2022/05/02 01:36:09;;;;;;;;;;;11.50;96.50;;;;;;5066089;28;19913;-70
2022/05/02 01:38:36;;;;;;;;;;;11.60;96.50;;;;;;5048427;28;19909;-70
2022/05/02 01:41:03;;;;;;;;;;;11.50;96.60;;;;;;5047943;28;19909;-70
2022/05/02 01:43:29;;;;;;;;;;;11.40;96.80;;;;;;5066295;28;19915;-70
2022/05/02 01:45:54;;;;;;;;;;;11.50;96.80;;;;;;5066066;28;19909;-70
2022/05/02 01:48:20;;;;;;;;;;;11.40;96.90;;;;;;5066102;28;19915;-70
2022/05/02 01:50:46;;;;;;;;;;;11.40;97.00;;;;;;5065688;28;20002;-70
2022/05/02 01:53:11;;;;;;;;;;;11.30;97.00;;;;;;5065911;28;20003;-70
2022/05/02 01:55:37;;;;;;;;;;;11.30;96.80;;;;;;5091662;23;19930;-68
2022/05/02 01:58:03;;;;;;;;;;;11.30;96.70;;;;;;5079764;28;20139;-68
2022/05/02 02:00:28;;;;;;;;;;;11.20;96.70;;;;;;5084500;28;20010;-69
2022/05/02 02:02:54;;;;;;;;;;;11.20;96.90;;;;;;5084385;28;19946;-69
2022/05/02 02:08:04;;;;;;;;;;;11.20;97.00;;;;;;5084573;28;19916;-69
2022/05/02 02:10:30;;;;;;;;;;;11.10;96.90;;;;;;5084157;28;19912;-68
2022/05/02 02:12:56;;;;;;;;;;;11.10;97.00;;;;;;5084134;28;19908;-68
2022/05/02 02:15:21;;;;;;;;;;;11.00;97.40;;;;;;5084326;28;19987;-68
2022/05/02 02:17:47;;;;;;;;;;;11.00;97.60;;;;;;5074615;28;20111;-68
2022/05/02 02:20:13;;;;;;;;;;;10.90;97.70;;;;;;5084361;28;19916;-69
2022/05/02 02:22:38;;;;;;;;;;;10.90;97.80;;;;;;5083903;28;19932;-69
2022/05/02 02:25:05;;;;;;;;;;;10.90;97.80;;;;;;5083590;28;20249;-68
2022/05/02 02:27:31;;;;;;;;;;;10.90;97.70;;;;;;5083885;28;19916;-69
2022/05/02 02:29:57;;;;;;;;;;;10.80;97.70;;;;;;5084081;28;19909;-68
2022/05/02 02:32:23;;;;;;;;;;;10.80;97.80;;;;;;5065911;28;19915;-68
2022/05/02 02:34:49;;;;;;;;;;;10.80;97.90;;;;;;5083890;28;19912;-67
2022/05/02 02:37:15;;;;;;;;;;;10.80;97.80;;;;;;5083914;28;19951;-67
2022/05/02 02:39:42;;;;;;;;;;;10.80;97.50;;;;;;5083888;28;19912;-68
2022/05/02 02:42:08;;;;;;;;;;;10.70;97.60;;;;;;5083220;28;19991;-68
2022/05/02 02:44:34;;;;;;;;;;;10.70;97.70;;;;;;5083725;28;19940;-68
2022/05/02 02:46:59;;;;;;;;;;;10.70;97.80;;;;;;5064978;28;19920;-68
2022/05/02 02:49:25;;;;;;;;;;;10.70;97.80;;;;;;5082090;28;20196;-68
2022/05/02 02:51:51;;;;;;;;;;;10.70;97.70;;;;;;5083139;28;19909;-68
2022/05/02 02:54:16;;;;;;;;;;;10.70;97.70;;;;;;5083385;28;19920;-68
2022/05/02 02:56:42;;;;;;;;;;;10.70;97.80;;;;;;5083044;28;19924;-68
2022/05/02 02:59:08;;;;;;;;;;;10.60;98.00;;;;;;5083393;28;20054;-68
2022/05/02 03:01:34;;;;;;;;;;;10.60;98.00;;;;;;5065199;28;20279;-68
2022/05/02 03:06:01;;;;;;;;;;;10.50;98.10;;;;;;5065501;28;19979;-68
2022/05/02 03:06:45;;;;;;;;;;;10.50;98.20;;;;;;5083090;28;19962;-68
2022/05/02 03:09:11;;;;;;;;;;;10.50;98.40;;;;;;5083200;28;19908;-68
2022/05/02 03:11:36;;;;;;;;;;;10.50;98.30;;;;;;5082689;28;19908;-67
2022/05/02 03:14:02;;;;;;;;;;;10.40;98.30;;;;;;5083025;28;19958;-68
2022/05/02 03:16:28;;;;;;;;;;;10.40;98.40;;;;;;5083131;28;20226;-68
2022/05/02 03:18:54;;;;;;;;;;;10.40;98.40;;;;;;5082962;28;19909;-68
2022/05/02 03:21:19;;;;;;;;;;;10.40;98.40;;;;;;5082668;28;20211;-68
2022/05/02 03:23:45;;;;;;;;;;;10.40;98.40;;;;;;5082990;28;19999;-68
2022/05/02 03:26:10;;;;;;;;;;;10.40;98.50;;;;;;5082548;28;20349;-69
2022/05/02 03:28:36;;;;;;;;;;;10.30;98.50;;;;;;5064959;28;19975;-69
2022/05/02 03:31:02;;;;;;;;;;;10.30;98.60;;;;;;5082559;28;19923;-68
2022/05/02 03:33:28;;;;;;;;;;;10.30;98.60;;;;;;5082883;28;19916;-68
2022/05/02 03:35:54;;;;;;;;;;;10.20;98.70;;;;;;5064785;28;19949;-68
2022/05/02 03:38:20;;;;;;;;;;;10.10;99.00;;;;;;5081188;28;19908;-68
2022/05/02 03:40:45;;;;;;;;;;;10.00;99.20;;;;;;5082263;28;19915;-68
2022/05/02 03:43:11;;;;;;;;;;;10.00;99.50;;;;;;5082625;28;19940;-69
2022/05/02 03:45:37;;;;;;;;;;;9.90;99.60;;;;;;5081880;28;19929;-69
2022/05/02 03:48:03;;;;;;;;;;;9.80;99.90;;;;;;5062515;28;20099;-68
2022/05/02 03:50:29;;;;;;;;;;;9.80;99.90;;;;;;5044607;28;19919;-68
2022/05/02 03:52:55;;;;;;;;;;;9.80;99.90;;;;;;5062272;28;19909;-69
2022/05/02 03:55:21;;;;;;;;;;;9.70;99.90;;;;;;5061960;28;20104;-68
2022/05/02 03:57:46;;;;;;;;;;;9.60;99.90;;;;;;5062315;28;19908;-68
2022/05/02 04:00:13;;;;;;;;;;;9.70;99.90;;;;;;5062350;28;19972;-69
2022/05/02 04:02:39;;;;;;;;;;;9.60;99.90;;;;;;5062074;28;20202;-68
2022/05/02 04:05:05;;;;;;;;;;;9.70;99.90;;;;;;5062184;28;19924;-69
2022/05/02 04:07:31;;;;;;;;;;;9.60;99.90;;;;;;5062272;28;19909;-68
2022/05/02 04:09:57;;;;;;;;;;;9.60;99.90;;;;;;5062188;28;20073;-68
2022/05/02 04:12:22;;;;;;;;;;;9.60;99.90;;;;;;5061621;28;19916;-68
2022/05/02 04:14:48;;;;;;;;;;;9.60;99.90;;;;;;5061967;28;19913;-68
2022/05/02 04:17:14;;;;;;;;;;;9.60;99.90;;;;;;5062109;28;19909;-69
2022/05/02 04:19:39;;;;;;;;;;;9.60;99.90;;;;;;5062119;28;19944;-69
2022/05/02 04:22:05;;;;;;;;;;;9.60;99.90;;;;;;5061774;28;19909;-69
2022/05/02 04:24:31;;;;;;;;;;;9.60;99.90;;;;;;5062189;28;19916;-69
2022/05/02 04:26:57;;;;;;;;;;;9.60;99.90;;;;;;5044992;28;19912;-68
2022/05/02 04:29:24;;;;;;;;;;;9.60;99.90;;;;;;5062961;28;20135;-68
2022/05/02 04:31:49;;;;;;;;;;;9.60;99.90;;;;;;5045195;28;20088;-68
2022/05/02 04:34:15;;;;;;;;;;;9.60;99.90;;;;;;5062652;28;19935;-66
2022/05/02 04:36:41;;;;;;;;;;;9.60;99.90;;;;;;5062731;28;19908;-68
2022/05/02 04:39:06;;;;;;;;;;;9.50;99.90;;;;;;5079303;28;19908;-66
2022/05/02 04:41:32;;;;;;;;;;;9.60;99.90;;;;;;5079469;28;19954;-66
2022/05/02 04:43:58;;;;;;;;;;;9.50;99.90;;;;;;5082762;28;19908;-67
2022/05/02 04:46:24;;;;;;;;;;;9.50;99.90;;;;;;5076898;28;19913;-69
2022/05/02 04:48:49;;;;;;;;;;;9.60;99.90;;;;;;5082370;28;19915;-67
2022/05/02 04:51:15;;;;;;;;;;;9.60;99.90;;;;;;5081235;28;19962;-68
2022/05/02 04:53:41;;;;;;;;;;;9.60;99.90;;;;;;5082895;28;19955;-69
2022/05/02 04:56:06;;;;;;;;;;;9.70;99.90;;;;;;5082633;28;19971;-68
2022/05/02 04:58:32;;;;;;;;;;;9.70;99.90;;;;;;5082610;28;19916;-68
2022/05/02 05:00:58;;;;;;;;;;;9.70;99.90;;;;;;5082404;28;19909;-68
2022/05/02 05:03:23;;;;;;;;;;;9.70;99.90;;;;;;5082691;28;19975;-68
2022/05/02 05:05:50;;;;;;;;;;;9.80;99.90;;;;;;5082704;28;19943;-68
2022/05/02 05:08:15;;;;;;;;;;;9.90;99.90;;;;;;5082912;28;20305;-69
2022/05/02 05:10:47;;;;;;;;;;;10.00;99.90;;;;;;5079729;28;19912;-68
2022/05/02 05:13:14;;;;;;;;;;;10.00;99.90;;;;;;5066459;28;20208;-68
2022/05/02 05:16:24;;;;;;;;;;;10.10;99.90;;;;;;5073426;28;20142;-68
2022/05/02 05:19:03;;;;;;;;;;;10.20;99.90;;;;;;5051873;28;19975;-68
2022/05/02 05:21:32;;;;;;;;;;;10.30;99.90;;;;;;5080778;28;19908;-68
2022/05/02 05:24:04;;;;;;;;;;;10.30;99.90;;;;;;5069645;28;19912;-68
2022/05/02 05:26:35;;;;;;;;;;;10.30;99.80;;;;;;5081735;28;19908;-68
2022/05/02 05:29:32;;;;;;;;;;;10.40;99.80;;;;;;5082165;28;19917;-68
2022/05/02 05:32:14;;;;;;;;;;;10.40;99.50;;;;;;5082126;28;19908;-68
2022/05/02 05:35:04;;;;;;;;;;;10.50;99.40;;;;;;5081069;28;19919;-68
2022/05/02 05:37:48;;;;;;;;;;;10.60;99.20;;;;;;5074229;28;19909;-68
2022/05/02 05:40:37;;;;;;;;;;;10.70;98.80;;;;;;5064554;28;19908;-68
2022/05/02 05:43:21;;;;;;;;;;;10.80;98.30;;;;;;5082304;28;19909;-68
2022/05/02 05:46:06;;;;;;;;;;;10.80;98.30;;;;;;5082144;28;19948;-68
2022/05/02 05:48:44;;;;;;;;;;;11.00;98.10;;;;;;5082124;28;19909;-69
2022/05/02 05:51:12;;;;;;;;;;;11.00;97.80;;;;;;5064184;28;19965;-68
2022/05/02 05:53:38;;;;;;;;;;;11.10;97.60;;;;;;5082140;28;19912;-69
2022/05/02 05:56:39;;;;;;;;;;;11.20;97.60;;;;;;5081625;28;20253;-69
2022/05/02 05:59:07;;;;;;;;;;;11.30;97.30;;;;;;5064265;28;19954;-68
2022/05/02 06:02:06;;;;;;;;;;;11.50;96.80;;;;;;5065959;28;19928;-68
2022/05/02 06:04:35;;;;;;;;;;;11.60;96.50;;;;;;5085669;28;19938;-68
2022/05/02 06:07:01;;;;;;;;;;;11.80;95.80;;;;;;5085562;28;19946;-68
2022/05/02 06:09:30;;;;;;;;;;;11.80;95.60;;;;;;5067931;28;20203;-68
2022/05/02 06:11:59;;;;;;;;;;;11.90;95.30;;;;;;5084885;28;20146;-69
2022/05/02 06:14:30;;;;;;;;;;;12.00;95.10;;;;;;5085540;28;20168;-68
2022/05/02 06:19:44;;;;;;;;;;;12.20;94.60;;;;;;5070381;28;19924;-69
2022/05/02 06:22:10;;;;;;;;;;;12.30;94.40;;;;;;5084853;28;19913;-67
2022/05/02 06:24:36;;;;;;;;;;;12.30;93.90;;;;;;5085099;28;19912;-67
2022/05/02 06:27:02;;;;;;;;;;;12.40;93.70;;;;;;5067012;28;19908;-67
2022/05/02 06:29:27;;;;;;;;;;;12.40;93.50;;;;;;5050711;28;20066;-67
2022/05/02 06:31:54;;;;;;;;;;;12.60;92.20;;;;;;5084789;28;19908;-67
2022/05/02 06:34:27;;;;;;;;;;;12.60;92.40;;;;;;5067131;28;19912;-67
2022/05/02 06:37:25;;;;;;;;;;;12.70;91.80;;;;;;5084944;28;20010;-67
2022/05/02 06:40:15;;;;;;;;;;;12.90;91.40;;;;;;5047202;28;19921;-67
2022/05/02 06:43:03;;;;;;;;;;;12.90;91.30;;;;;;5064177;28;19983;-67
2022/05/02 06:45:32;;;;;;;;;;;12.90;91.30;;;;;;5046799;28;19909;-67
2022/05/02 06:48:28;;;;;;;;;;;13.00;91.40;;;;;;5047004;28;19909;-67
2022/05/02 06:51:04;;;;;;;;;;;13.00;92.00;;;;;;5046755;28;19913;-67
2022/05/02 06:53:42;;;;;;;;;;;13.10;91.70;;;;;;5064497;28;20006;-67
2022/05/02 06:56:26;;;;;;;;;;;13.20;91.20;;;;;;5064363;28;19924;-67
2022/05/02 06:59:11;;;;;;;;;;;13.10;91.20;;;;;;5064427;28;19908;-67
2022/05/02 07:01:43;;;;;;;;;;;13.10;91.00;;;;;;5064145;28;20144;-67
2022/05/02 07:04:29;;;;;;;;;;;13.20;90.50;;;;;;5064472;28;19912;-68
2022/05/02 07:07:37;;;;;;;;;;;13.40;89.80;;;;;;5064587;28;19916;-67
2022/05/02 07:10:06;;;;;;;;;;;13.40;90.10;;;;;;5053936;28;19909;-67
2022/05/02 07:12:53;;;;;;;;;;;13.40;90.20;;;;;;5063554;28;19908;-67
2022/05/02 07:15:49;;;;;;;;;;;13.70;88.40;;;;;;5049509;28;20081;-67
2022/05/02 07:18:38;;;;;;;;;;;13.70;86.30;;;;;;5064306;28;19916;-67
2022/05/02 07:21:06;;;;;;;;;;;13.70;86.60;;;;;;5063868;28;19955;-67
2022/05/02 07:24:08;;;;;;;;;;;13.70;87.90;;;;;;5064335;28;20142;-68
2022/05/02 07:26:34;;;;;;;;;;;13.80;88.40;;;;;;5029601;28;20204;-67
2022/05/02 07:29:00;;;;;;;;;;;13.80;87.40;;;;;;5064160;28;20153;-67
2022/05/02 07:31:26;;;;;;;;;;;13.90;87.30;;;;;;5063735;28;19931;-67
2022/05/02 07:33:53;;;;;;;;;;;13.90;85.70;;;;;;5063874;28;20474;-67
2022/05/02 07:36:20;;;;;;;;;;;14.00;85.50;;;;;;5063805;28;19916;-68
2022/05/02 07:38:47;;;;;;;;;;;14.10;85.60;;;;;;5077739;28;19916;-67
2022/05/02 07:41:22;;;;;;;;;;;14.10;85.20;;;;;;5083585;28;20085;-67
2022/05/02 07:44:12;;;;;;;;;;;14.20;85.20;;;;;;5083649;28;19919;-67
2022/05/02 07:46:39;;;;;;;;;;;14.30;84.30;;;;;;5083585;28;19954;-67
2022/05/02 07:49:06;;;;;;;;;;;14.40;83.60;;;;;;5083842;28;19943;-67
2022/05/02 07:51:32;;;;;;;;;;;14.60;82.20;;;;;;5083352;28;19916;-67
2022/05/02 07:53:59;;;;;;;;;;;14.60;82.50;;;;;;5083331;28;20178;-67
2022/05/02 07:56:30;;;;;;;;;;;14.70;80.60;;;;;;5081064;23;20150;-71
2022/05/02 07:58:57;;;;;;;;;;;14.80;81.20;;;;;;5050529;28;19908;-71
2022/05/02 08:01:23;;;;;;;;;;;14.90;81.60;;;;;;5066332;28;19968;-71
2022/05/02 08:03:49;;;;;;;;;;;15.00;80.80;;;;;;5067263;28;19973;-71
2022/05/02 08:06:52;;;;;;;;;;;15.30;80.00;;;;;;5034053;28;19916;-71
2022/05/02 08:09:44;;;;;;;;;;;15.40;78.20;;;;;;5066805;28;19919;-71
2022/05/02 08:12:39;;;;;;;;;;;15.30;78.80;;;;;;5040754;28;19979;-71
2022/05/02 08:15:20;;;;;;;;;;;15.20;79.70;;;;;;5066014;28;19948;-71
2022/05/02 08:17:47;;;;;;;;;;;15.30;80.80;;;;;;5067382;28;20071;-71
2022/05/02 08:20:34;;;;;;;;;;;15.40;81.30;;;;;;5068828;28;19915;-71
2022/05/02 08:29:34;;;;;;;;;;;16.00;80.50;;;;;;5066134;28;19920;-71
2022/05/02 08:32:03;;;;;;;;;;;16.10;79.30;;;;;;5048260;28;19980;-70
2022/05/02 08:34:41;;;;;;;;;;;16.10;79.90;;;;;;5064423;28;19913;-71
2022/05/02 08:37:18;;;;;;;;;;;16.40;76.90;;;;;;5064009;28;19909;-71
2022/05/02 08:40:06;;;;;;;;;;;16.40;76.70;;;;;;5064617;28;19979;-71
2022/05/02 08:42:41;;;;;;;;;;;16.50;77.20;;;;;;5063471;28;19908;-71
2022/05/02 08:45:44;;;;;;;;;;;16.90;75.50;;;;;;5064094;28;19915;-71
2022/05/02 08:48:47;;;;;;;;;;;17.00;73.40;;;;;;5062696;28;19920;-71
2022/05/02 08:51:37;;;;;;;;;;;17.20;77.10;;;;;;5064152;28;19955;-71
2022/05/02 08:54:21;;;;;;;;;;;17.30;74.50;;;;;;5064051;28;19935;-71
2022/05/02 08:56:56;;;;;;;;;;;17.50;73.80;;;;;;5063156;28;19920;-72
2022/05/02 09:00:07;;;;;;;;;;;17.70;73.20;;;;;;5063142;28;19943;-71
2022/05/02 09:03:10;;;;;;;;;;;17.80;71.80;;;;;;4986166;28;19910;-72
2022/05/02 09:05:46;;;;;;;;;;;17.50;72.90;;;;;;5063016;28;19915;-71
2022/05/02 09:08:45;;;;;;;;;;;17.80;70.40;;;;;;5062900;28;19908;-71
2022/05/02 09:11:32;;;;;;;;;;;17.80;68.40;;;;;;5063459;28;19909;-71
2022/05/02 09:14:35;;;;;;;;;;;17.60;70.00;;;;;;5064232;28;20347;-71
2022/05/02 09:17:07;;;;;;;;;;;17.60;69.80;;;;;;5063683;28;19909;-71
2022/05/02 09:20:06;;;;;;;;;;;17.80;67.50;;;;;;5063864;28;19920;-71
2022/05/02 09:22:59;;;;;;;;;;;17.80;69.20;;;;;;5062598;28;19909;-71
2022/05/02 09:25:37;;;;;;;;;;;17.90;66.70;;;;;;5063771;28;19909;-71
2022/05/02 09:28:38;;;;;;;;;;;18.10;67.20;;;;;;5062568;28;19940;-71
2022/05/02 09:31:16;;;;;;;;;;;18.10;66.20;;;;;;5030305;28;19909;-71
2022/05/02 09:34:09;;;;;;;;;;;18.20;65.70;;;;;;5063218;28;19913;-71
2022/05/02 09:36:53;;;;;;;;;;;18.20;66.50;;;;;;5067326;28;19931;-72
2022/05/02 09:39:24;;;;;;;;;;;18.20;66.50;;;;;;5067640;28;20202;-71
2022/05/02 09:41:58;;;;;;;;;;;18.30;66.00;;;;;;5067148;28;19940;-71
2022/05/02 09:50:25;;;;;;;;;;;18.50;66.60;;;;;;5066517;28;19954;-71
2022/05/02 09:53:21;;;;;;;;;;;18.80;65.90;;;;;;5065841;28;20150;-71
2022/05/02 09:59:05;;;;;;;;;;;19.00;66.60;;;;;;5067459;28;19962;-71
2022/05/02 10:01:31;;;;;;;;;;;19.50;65.70;;;;;;5051694;28;20150;-71
2022/05/02 10:04:19;;;;;;;;;;;19.70;60.80;;;;;;5066133;28;20196;-72
2022/05/02 10:06:51;;;;;;;;;;;19.90;61.40;;;;;;5067397;28;19980;-71
2022/05/02 10:09:20;;;;;;;;;;;19.80;60.90;;;;;;5033000;28;19909;-71
2022/05/02 10:12:03;;;;;;;;;;;19.70;59.70;;;;;;5065822;28;19909;-71
2022/05/02 10:14:38;;;;;;;;;;;19.80;59.30;;;;;;5050618;28;19950;-72
2022/05/02 10:17:07;;;;;;;;;;;19.70;59.90;;;;;;5050252;28;19908;-71
2022/05/02 10:19:54;;;;;;;;;;;19.80;58.30;;;;;;5067574;28;19916;-72
2022/05/02 10:22:45;;;;;;;;;;;19.80;61.70;;;;;;5067307;28;19909;-71
2022/05/02 10:25:18;;;;;;;;;;;20.00;60.30;;;;;;5067253;28;19908;-71
2022/05/02 10:28:03;;;;;;;;;;;20.10;59.80;;;;;;5065954;28;19984;-71
2022/05/02 10:30:35;;;;;;;;;;;20.00;58.30;;;;;;5067158;28;20007;-71
2022/05/02 10:33:01;;;;;;;;;;;20.00;57.40;;;;;;5049545;28;20158;-71
2022/05/02 10:35:28;;;;;;;;;;;20.20;57.40;;;;;;5033074;28;19913;-71
2022/05/02 10:38:01;;;;;;;;;;;20.30;59.80;;;;;;5049649;28;19917;-71
2022/05/02 10:40:40;;;;;;;;;;;20.30;59.80;;;;;;5066386;28;19908;-72
2022/05/02 10:43:10;;;;;;;;;;;20.10;57.70;;;;;;5067606;28;19931;-71
2022/05/02 10:45:37;;;;;;;;;;;20.10;58.00;;;;;;5066574;28;19943;-72
2022/05/02 10:48:44;;;;;;;;;;;20.20;60.00;;;;;;5065540;28;19916;-72
2022/05/02 10:51:43;;;;;;;;;;;20.50;56.60;;;;;;5065291;28;19915;-71
2022/05/02 10:54:09;;;;;;;;;;;20.50;56.10;;;;;;5066058;28;19920;-71
2022/05/02 10:56:42;;;;;;;;;;;20.40;56.90;;;;;;5066599;28;19912;-71
2022/05/02 10:59:13;;;;;;;;;;;20.30;55.20;;;;;;5067003;28;19915;-72
2022/05/02 11:01:45;;;;;;;;;;;20.10;55.30;;;;;;5049400;28;19916;-71
2022/05/02 11:04:35;;;;;;;;;;;20.00;56.20;;;;;;5067291;28;19909;-72
2022/05/02 11:07:15;;;;;;;;;;;19.90;56.60;;;;;;5065268;28;19909;-71
2022/05/02 11:09:55;;;;;;;;;;;20.00;57.00;;;;;;5049811;28;19909;-72
2022/05/02 11:12:22;;;;;;;;;;;19.70;59.00;;;;;;5064753;28;20252;-72
2022/05/02 11:15:05;;;;;;;;;;;19.90;58.30;;;;;;5065097;28;19919;-72
2022/05/02 11:18:07;;;;;;;;;;;20.10;55.70;;;;;;5048513;28;20202;-71
2022/05/02 11:20:42;;;;;;;;;;;20.30;55.00;;;;;;5066464;28;19916;-71
2022/05/02 11:23:39;;;;;;;;;;;20.50;54.40;;;;;;5066427;28;19963;-72
2022/05/02 11:26:17;;;;;;;;;;;20.70;53.20;;;;;;5066776;28;20211;-72
2022/05/02 11:29:01;;;;;;;;;;;20.90;53.50;;;;;;5065809;28;19912;-73
2022/05/02 11:31:36;;;;;;;;;;;21.00;52.70;;;;;;5066236;28;19977;-71
2022/05/02 11:34:26;;;;;;;;;;;21.10;51.90;;;;;;5064796;28;19913;-72
2022/05/02 11:36:53;;;;;;;;;;;21.10;51.90;;;;;;5065320;28;19946;-72
2022/05/02 11:39:48;;;;;;;;;;;21.30;53.20;;;;;;5048557;28;19966;-72
2022/05/02 11:42:14;;;;;;;;;;;21.60;50.80;;;;;;5065237;28;20150;-72
2022/05/02 11:44:55;;;;;;;;;;;21.70;51.40;;;;;;5065089;28;19976;-72
2022/05/02 11:47:48;;;;;;;;;;;21.40;54.20;;;;;;5065414;28;19909;-72
2022/05/02 11:50:18;;;;;;;;;;;21.70;52.40;;;;;;5065485;28;19982;-72
2022/05/02 11:52:48;;;;;;;;;;;21.80;51.30;;;;;;5065474;28;19909;-72
2022/05/02 11:55:13;;;;;;;;;;;22.00;52.40;;;;;;5047474;28;19913;-72
2022/05/02 11:57:43;;;;;;;;;;;22.50;50.80;;;;;;5063279;28;19976;-72
2022/05/02 12:00:11;;;;;;;;;;;22.80;51.70;;;;;;5063859;28;20112;-72
2022/05/02 12:02:37;;;;;;;;;;;23.20;50.10;;;;;;5065139;28;19912;-72
2022/05/02 12:05:05;;;;;;;;;;;23.20;47.00;;;;;;5065724;28;19908;-72
2022/05/02 12:07:34;;;;;;;;;;;23.30;45.20;;;;;;5047963;28;20223;-72
2022/05/02 12:10:09;;;;;;;;;;;23.00;46.00;;;;;;5063829;28;20254;-72
2022/05/02 12:12:36;;;;;;;;;;;22.90;46.90;;;;;;5045456;28;19920;-72
2022/05/02 12:15:11;;;;;;;;;;;22.90;47.80;;;;;;5044734;28;20231;-72
2022/05/02 12:18:03;;;;;;;;;;;22.70;48.30;;;;;;5046080;28;19916;-73
2022/05/02 12:20:31;;;;;;;;;;;22.60;48.50;;;;;;5049485;28;19909;-72
2022/05/02 12:23:13;;;;;;;;;;;23.20;47.10;;;;;;5044002;28;19909;-72
2022/05/02 12:25:49;;;;;;;;;;;23.90;46.80;;;;;;5042614;28;20212;-72
2022/05/02 12:28:16;;;;;;;;;;;25.50;45.00;;;;;;5043373;28;20040;-71
2022/05/02 12:30:41;;;;;;;;;;;26.90;42.30;;;;;;5042002;28;19909;-72
2022/05/02 12:33:08;;;;;;;;;;;27.80;40.70;;;;;;5026018;28;20004;-71
2022/05/02 12:35:40;;;;;;;;;;;27.60;39.00;;;;;;5026252;28;19967;-71
2022/05/02 12:38:16;;;;;;;;;;;27.50;39.50;;;;;;5027576;28;19979;-72
2022/05/02 12:40:42;;;;;;;;;;;27.80;40.90;;;;;;5063065;28;19931;-71
2022/05/02 12:43:20;;;;;;;;;;;29.40;39.60;;;;;;5063622;28;19916;-71
2022/05/02 12:45:46;;;;;;;;;;;31.40;35.40;;;;;;5063851;28;19988;-72
2022/05/02 12:48:18;;;;;;;;;;;31.40;33.80;;;;;;5062730;28;19916;-72
2022/05/02 12:50:47;;;;;;;;;;;31.10;33.70;;;;;;5062696;28;19908;-72
2022/05/02 12:54:09;;;;;;;;;;;30.20;32.90;;;;;;5046310;28;19916;-72
2022/05/02 12:56:06;;;;;;;;;;;29.20;35.40;;;;;;5063397;28;20171;-72
2022/05/02 13:01:19;;;;;;;;;;;27.10;37.40;;;;;;5063258;28;19993;-71
2022/05/02 13:03:45;;;;;;;;;;;26.20;38.50;;;;;;5062103;28;19909;-71
2022/05/02 13:06:10;;;;;;;;;;;25.60;40.40;;;;;;5045513;28;20222;-71
2022/05/02 13:08:38;;;;;;;;;;;25.00;38.60;;;;;;5061957;28;19908;-71
2022/05/02 13:11:11;;;;;;;;;;;24.30;39.80;;;;;;5031779;28;19909;-71
2022/05/02 13:13:42;;;;;;;;;;;23.80;41.20;;;;;;5067214;28;19913;-70
2022/05/02 13:16:28;;;;;;;;;;;23.50;41.50;;;;;;5050236;28;19915;-71
2022/05/02 13:18:55;;;;;;;;;;;23.10;42.00;;;;;;5066065;28;19908;-71
2022/05/02 13:21:21;;;;;;;;;;;22.80;42.30;;;;;;5066435;28;19915;-73
2022/05/02 13:23:57;;;;;;;;;;;22.60;44.60;;;;;;5066902;28;19909;-71
2022/05/02 13:26:44;;;;;;;;;;;22.60;45.10;;;;;;5050502;28;19915;-71
2022/05/02 13:29:26;;;;;;;;;;;22.80;46.40;;;;;;5066068;28;19970;-71
2022/05/02 13:32:08;;;;;;;;;;;23.90;42.60;;;;;;5065292;28;20242;-72
2022/05/02 13:34:50;;;;;;;;;;;24.40;41.90;;;;;;5065571;28;20254;-72
2022/05/02 13:37:47;;;;;;;;;;;24.60;40.70;;;;;;5066543;28;19953;-72
2022/05/02 13:40:14;;;;;;;;;;;24.40;42.50;;;;;;5061171;28;19968;-72
2022/05/02 13:43:15;;;;;;;;;;;23.90;44.00;;;;;;5066231;28;20093;-72
2022/05/02 13:45:59;;;;;;;;;;;23.70;43.90;;;;;;5065514;28;19939;-71
2022/05/02 13:48:51;;;;;;;;;;;23.80;43.10;;;;;;5066317;28;20192;-71
2022/05/02 13:51:17;;;;;;;;;;;23.60;43.60;;;;;;5049867;28;19943;-71
2022/05/02 13:53:57;;;;;;;;;;;23.50;44.00;;;;;;5065711;28;20087;-69
2022/05/02 13:56:45;;;;;;;;;;;24.10;43.60;;;;;;5054100;28;19984;-69
2022/05/02 13:59:16;;;;;;;;;;;26.40;41.60;;;;;;5078182;23;19921;-70
2022/05/02 14:02:09;;;;;;;;;;;29.10;38.20;;;;;;5065282;28;19909;-70
2022/05/02 14:04:45;;;;;;;;;;;30.60;37.70;;;;;;5065662;28;19919;-68
2022/05/02 14:09:44;;;;;;;;;;;31.40;33.80;;;;;;5064478;28;19954;-70
2022/05/02 14:12:22;;;;;;;;;;;32.30;33.90;;;;;;5048368;28;20116;-69
2022/05/02 14:15:09;;;;;;;;;;;33.00;32.30;;;;;;5065206;28;19948;-69
2022/05/02 14:17:46;;;;;;;;;;;31.40;33.40;;;;;;5065684;28;19944;-69
2022/05/02 14:20:29;;;;;;;;;;;28.70;36.60;;;;;;5065490;28;20115;-69
2022/05/02 14:22:58;;;;;;;;;;;27.30;40.60;;;;;;5063774;28;19909;-69
2022/05/02 14:25:33;;;;;;;;;;;25.80;39.90;;;;;;5065164;28;19908;-69
2022/05/02 14:28:08;;;;;;;;;;;24.60;44.90;;;;;;5064860;28;19916;-69
2022/05/02 14:30:41;;;;;;;;;;;23.80;47.50;;;;;;5064907;28;19915;-69
2022/05/02 14:33:12;;;;;;;;;;;23.10;49.30;;;;;;5047128;28;19915;-69
2022/05/02 14:35:39;;;;;;;;;;;22.70;48.70;;;;;;5064324;28;19987;-69
2022/05/02 14:38:07;;;;;;;;;;;22.80;47.40;;;;;;5047568;28;19947;-69
2022/05/02 14:40:33;;;;;;;;;;;22.70;46.00;;;;;;5062404;28;19909;-69
2022/05/02 14:42:59;;;;;;;;;;;22.40;47.80;;;;;;5047207;28;19909;-70
2022/05/02 14:45:25;;;;;;;;;;;22.30;48.20;;;;;;5047339;28;19909;-68
2022/05/02 14:47:51;;;;;;;;;;;22.40;48.00;;;;;;5064460;28;19909;-68
2022/05/02 14:50:20;;;;;;;;;;;22.50;49.20;;;;;;5046851;28;19909;-69
2022/05/02 14:52:49;;;;;;;;;;;22.90;50.00;;;;;;5064609;28;19909;-69
2022/05/02 14:55:18;;;;;;;;;;;24.50;48.30;;;;;;5064342;28;19913;-69
2022/05/02 14:57:48;;;;;;;;;;;26.30;44.20;;;;;;5064481;28;19936;-69
2022/05/02 15:00:14;;;;;;;;;;;27.90;42.40;;;;;;5046188;28;20226;-69
2022/05/02 15:02:41;;;;;;;;;;;29.10;39.80;;;;;;5064086;28;19936;-70
2022/05/02 15:05:08;;;;;;;;;;;30.50;38.10;;;;;;5064467;28;19909;-70
2022/05/02 15:07:58;;;;;;;;;;;30.40;36.90;;;;;;5064303;28;19908;-70
2022/05/02 15:10:26;;;;;;;;;;;30.20;37.00;;;;;;5046235;28;19909;-70
2022/05/02 15:13:20;;;;;;;;;;;30.50;36.10;;;;;;5063981;28;19972;-69
2022/05/02 15:16:18;;;;;;;;;;;31.20;33.60;;;;;;5064340;28;19913;-69
2022/05/02 15:22:09;;;;;;;;;;;32.00;32.80;;;;;;5063934;28;19931;-70
2022/05/02 15:24:57;;;;;;;;;;;31.60;34.00;;;;;;5047519;28;19909;-70
2022/05/02 15:38:58;;;;;;;;;;;29.10;36.30;;;;;;5063604;28;19935;-69
2022/05/02 15:41:41;;;;;;;;;;;28.30;37.10;;;;;;5060589;28;20461;-69